Terminal Aerodrome Forecast
Issued by NWS Springfield, MO

Home | Current Version | Previous Version | Text Only | Print | Product List | Glossary On
Versions: 1 2 3 4 5 6 7 8 9 10 11 12 13 14 15 16 17
000
FTUS43 KSGF 310500
TAFSGF
TAF
KSGF 310520Z 3106/0106 33010KT P6SM SKC WS020/35035KT
     FM311000 34012KT P6SM BKN025 WS019/35035KT
     FM311400 35015G25KT P6SM BKN030
     FM311900 36014G24KT P6SM SCT035
     FM312300 36007KT P6SM SKC=

USA.gov is the U.S. government's official web portal to all federal, state and local government web resources and services.